createdAt,value
2023-05-03T00:01:01.973Z,2.42
2023-05-03T00:03:29.888Z,2.83
2023-05-03T00:05:57.056Z,3.05
2023-05-03T00:08:23.927Z,2.88
2023-05-03T00:10:50.849Z,3.08
2023-05-03T00:13:17.486Z,3.30
2023-05-03T00:15:44.553Z,3.75
2023-05-03T00:18:11.597Z,2.78
2023-05-03T00:20:38.361Z,4.38
2023-05-03T00:23:05.323Z,2.95
2023-05-03T00:25:32.175Z,3.00
2023-05-03T00:27:58.907Z,2.67
2023-05-03T00:30:25.694Z,2.88
2023-05-03T00:32:52.444Z,3.15
2023-05-03T00:35:19.600Z,3.17
2023-05-03T00:37:47.147Z,3.05
2023-05-03T00:40:18.577Z,4.55
2023-05-03T00:42:46.795Z,3.22
2023-05-03T00:45:13.435Z,3.30
2023-05-03T00:47:40.593Z,3.22
2023-05-03T00:50:08.512Z,2.65
2023-05-03T00:52:35.590Z,3.38
2023-05-03T00:55:02.339Z,2.92
2023-05-03T00:57:31.245Z,3.17
2023-05-03T00:59:59.177Z,3.47
2023-05-03T01:02:27.135Z,2.92
2023-05-03T01:04:55.618Z,4.05
2023-05-03T01:07:36.840Z,3.95
2023-05-03T01:10:22.175Z,3.55
2023-05-03T01:12:57.729Z,3.60
2023-05-03T01:16:06.485Z,2.63
2023-05-03T01:18:39.196Z,3.08
2023-05-03T01:21:09.294Z,3.03
2023-05-03T01:24:00.178Z,3.53
2023-05-03T01:26:28.416Z,3.08
2023-05-03T01:28:56.007Z,2.97
2023-05-03T01:31:34.928Z,3.88
2023-05-03T01:34:25.506Z,3.00
2023-05-03T01:36:57.713Z,4.18
2023-05-03T01:39:52.374Z,3.05
2023-05-03T01:42:20.758Z,3.35
2023-05-03T01:44:49.136Z,3.20
2023-05-03T01:47:15.968Z,3.38
2023-05-03T01:49:43.005Z,3.25
2023-05-03T01:52:09.674Z,3.60
2023-05-03T01:54:37.555Z,3.22
2023-05-03T01:57:04.426Z,4.13
2023-05-03T01:59:31.223Z,2.95
2023-05-03T02:01:58.610Z,3.15
2023-05-03T02:04:25.485Z,4.18
2023-05-03T02:06:52.531Z,3.85
2023-05-03T02:09:19.235Z,4.53
2023-05-03T02:11:46.063Z,2.92
2023-05-03T02:14:12.723Z,3.25
2023-05-03T02:16:40.208Z,3.70
2023-05-03T02:19:08.584Z,2.95
2023-05-03T02:21:36.406Z,3.85
2023-05-03T02:24:03.791Z,4.70
2023-05-03T02:26:30.943Z,2.55
2023-05-03T02:28:58.323Z,2.70
2023-05-03T02:31:28.094Z,2.70
2023-05-03T02:33:56.659Z,2.97
2023-05-03T02:36:23.684Z,2.92
2023-05-03T02:38:50.598Z,3.05
2023-05-03T02:41:18.196Z,5.80
2023-05-03T02:43:44.983Z,2.90
2023-05-03T02:46:13.086Z,3.40
2023-05-03T02:48:39.882Z,2.80
2023-05-03T02:51:06.604Z,3.00
2023-05-03T02:53:33.589Z,3.03
2023-05-03T02:56:03.012Z,4.35
2023-05-03T02:58:31.420Z,3.05
2023-05-03T03:00:59.734Z,2.92
2023-05-03T03:03:29.938Z,3.20
2023-05-03T03:05:56.876Z,3.05
2023-05-03T03:08:23.899Z,2.90
2023-05-03T03:10:51.078Z,3.25
2023-05-03T03:13:18.268Z,3.17
2023-05-03T03:15:45.134Z,2.97
2023-05-03T03:18:11.963Z,3.55
2023-05-03T03:20:39.135Z,2.90
2023-05-03T03:23:05.832Z,2.90
2023-05-03T03:25:32.930Z,3.38
2023-05-03T03:28:00.126Z,2.90
2023-05-03T03:30:27.538Z,3.05
2023-05-03T03:33:06.689Z,3.25
2023-05-03T03:35:39.007Z,3.00
2023-05-03T03:38:06.746Z,2.88
2023-05-03T03:40:37.866Z,3.85
2023-05-03T03:43:05.407Z,2.75
2023-05-03T03:45:32.180Z,3.13
2023-05-03T03:47:59.576Z,2.85
2023-05-03T03:50:27.142Z,3.25
2023-05-03T03:52:53.879Z,2.90
2023-05-03T03:55:21.041Z,3.08
2023-05-03T03:57:49.660Z,3.47
2023-05-03T04:00:19.391Z,3.28
2023-05-03T04:02:53.515Z,3.55
2023-05-03T04:05:20.482Z,2.85
2023-05-03T04:07:47.945Z,3.03
2023-05-03T04:10:16.394Z,3.28
2023-05-03T04:12:43.771Z,3.15
2023-05-03T04:15:12.440Z,3.17
2023-05-03T04:17:40.164Z,2.55
2023-05-03T04:20:14.038Z,3.25
2023-05-03T04:22:44.948Z,2.88
2023-05-03T04:25:17.290Z,2.72
2023-05-03T04:27:49.171Z,3.03
2023-05-03T04:30:17.907Z,3.70
2023-05-03T04:32:48.529Z,3.33
2023-05-03T04:35:15.834Z,4.82
2023-05-03T04:37:46.916Z,3.50
2023-05-03T04:40:19.979Z,3.22
2023-05-03T04:42:52.952Z,3.35
2023-05-03T04:45:20.909Z,2.88
2023-05-03T04:47:49.654Z,2.75
2023-05-03T04:50:16.654Z,5.13
2023-05-03T04:52:48.069Z,3.47
2023-05-03T04:55:15.614Z,4.15
2023-05-03T04:57:42.723Z,4.03
2023-05-03T05:00:12.887Z,3.60
2023-05-03T05:02:45.051Z,3.65
2023-05-03T05:05:12.449Z,3.22
2023-05-03T05:07:39.391Z,3.55
2023-05-03T05:10:07.860Z,2.80
2023-05-03T05:12:58.899Z,3.38
2023-05-03T05:15:26.648Z,3.25
2023-05-03T05:17:56.064Z,4.05
2023-05-03T05:20:23.365Z,4.18
2023-05-03T05:22:58.619Z,3.58
2023-05-03T05:25:30.498Z,4.10
2023-05-03T05:28:07.017Z,3.40
2023-05-03T05:30:35.408Z,3.88
2023-05-03T05:33:07.237Z,3.65
2023-05-03T05:35:36.613Z,3.58
2023-05-03T05:38:05.140Z,3.38
2023-05-03T05:40:33.332Z,3.63
2023-05-03T05:43:03.502Z,3.08
2023-05-03T05:45:36.579Z,3.35
2023-05-03T05:48:05.050Z,3.30
2023-05-03T05:53:13.226Z,4.88
2023-05-03T05:55:45.470Z,3.42
2023-05-03T05:58:13.952Z,3.38
2023-05-03T06:00:51.988Z,4.20
2023-05-03T06:03:19.457Z,3.70
2023-05-03T06:05:49.327Z,3.63
2023-05-03T06:08:16.064Z,3.95
2023-05-03T06:10:42.841Z,3.75
2023-05-03T06:13:09.952Z,4.82
2023-05-03T06:15:37.460Z,4.95
2023-05-03T06:18:04.857Z,5.35
2023-05-03T06:20:31.756Z,4.18
2023-05-03T06:22:59.110Z,4.50
2023-05-03T06:25:26.355Z,3.75
2023-05-03T06:27:53.471Z,3.78
2023-05-03T06:30:25.753Z,5.60
2023-05-03T06:32:52.919Z,6.05
2023-05-03T06:35:21.911Z,4.10
2023-05-03T06:37:49.653Z,5.22
2023-05-03T06:40:18.510Z,4.63
2023-05-03T06:42:45.331Z,5.25
2023-05-03T06:45:15.802Z,6.93
2023-05-03T06:47:43.030Z,6.05
2023-05-03T06:50:10.952Z,5.88
2023-05-03T06:52:38.231Z,5.72
2023-05-03T06:55:05.384Z,7.40
2023-05-03T06:57:32.677Z,8.07
2023-05-03T06:59:59.568Z,9.25
2023-05-03T07:02:27.017Z,8.50
2023-05-03T07:04:54.130Z,9.48
2023-05-03T07:07:21.145Z,9.13
2023-05-03T07:09:48.561Z,9.90
2023-05-03T07:12:16.749Z,11.38
2023-05-03T07:14:43.795Z,11.05
2023-05-03T07:17:10.724Z,12.73
2023-05-03T07:19:38.928Z,13.73
2023-05-03T07:22:06.139Z,14.10
2023-05-03T07:24:32.843Z,14.50
2023-05-03T07:27:00.193Z,14.43
2023-05-03T07:29:27.612Z,15.15
2023-05-03T07:31:54.734Z,14.50
2023-05-03T07:34:21.725Z,15.70
2023-05-03T07:36:48.538Z,15.80
2023-05-03T07:39:15.381Z,16.25
2023-05-03T07:41:42.424Z,19.67
2023-05-03T07:44:09.331Z,17.45
2023-05-03T07:46:36.209Z,15.30
2023-05-03T07:49:04.523Z,13.48
2023-05-03T07:51:36.314Z,14.73
2023-05-03T07:54:03.090Z,13.48
2023-05-03T07:56:30.795Z,14.55
2023-05-03T07:59:08.215Z,16.00
2023-05-03T08:01:37.189Z,13.52
2023-05-03T08:04:04.781Z,14.05
2023-05-03T08:06:32.779Z,14.68
2023-05-03T08:08:59.707Z,16.30
2023-05-03T08:11:29.733Z,17.30
2023-05-03T08:13:56.841Z,17.33
2023-05-03T08:16:24.134Z,18.67
2023-05-03T08:18:52.062Z,16.98
2023-05-03T08:21:19.165Z,18.50
2023-05-03T08:23:46.508Z,17.95
2023-05-03T08:26:14.537Z,18.85
2023-05-03T08:28:41.979Z,28.15
2023-05-03T08:31:09.130Z,20.75
2023-05-03T08:33:36.751Z,22.80
2023-05-03T08:36:03.720Z,23.92
2023-05-03T08:38:30.420Z,22.08
2023-05-03T08:41:05.886Z,20.85
2023-05-03T08:43:42.298Z,21.45
2023-05-03T08:46:12.479Z,23.05
2023-05-03T08:48:39.394Z,21.05
2023-05-03T08:51:10.044Z,20.77
2023-05-03T08:53:36.952Z,22.00
2023-05-03T08:56:09.149Z,19.90
2023-05-03T08:58:39.571Z,21.00
2023-05-03T09:01:07.916Z,20.80
2023-05-03T09:03:35.884Z,20.15
2023-05-03T09:06:03.360Z,19.60
2023-05-03T09:08:32.586Z,20.60
2023-05-03T09:10:59.384Z,21.08
2023-05-03T09:13:32.137Z,19.05
2023-05-03T09:15:59.680Z,21.15
2023-05-03T09:18:27.416Z,19.73
2023-05-03T09:20:54.316Z,21.40
2023-05-03T09:23:27.284Z,20.50
2023-05-03T09:25:54.643Z,21.10
2023-05-03T09:28:22.126Z,19.85
2023-05-03T09:30:50.447Z,20.88
2023-05-03T09:33:21.863Z,20.90
2023-05-03T09:36:07.148Z,20.17
2023-05-03T09:38:36.939Z,19.92
2023-05-03T09:41:06.311Z,18.13
2023-05-03T09:43:34.931Z,18.58
2023-05-03T09:48:37.086Z,17.30
2023-05-03T09:51:05.641Z,17.80
2023-05-03T09:53:34.317Z,17.88
2023-05-03T09:56:06.204Z,16.85
2023-05-03T09:58:35.172Z,17.95
2023-05-03T10:01:02.137Z,16.02
2023-05-03T10:03:39.805Z,15.05
2023-05-03T10:06:11.734Z,16.83
2023-05-03T10:08:50.065Z,17.27
2023-05-03T10:11:17.645Z,16.48
2023-05-03T10:13:45.167Z,14.98
2023-05-03T10:16:21.197Z,14.48
2023-05-03T10:18:54.392Z,16.23
2023-05-03T10:21:57.260Z,15.77
2023-05-03T10:24:24.662Z,16.27
2023-05-03T10:26:51.741Z,15.13
2023-05-03T10:29:46.430Z,14.68
2023-05-03T10:32:35.602Z,12.90
2023-05-03T10:35:10.475Z,17.88
2023-05-03T10:37:38.261Z,14.68
2023-05-03T10:40:10.146Z,15.00
2023-05-03T10:42:38.874Z,15.15
2023-05-03T10:45:08.984Z,13.85
2023-05-03T10:47:35.925Z,14.43
2023-05-03T10:50:11.857Z,13.27
2023-05-03T10:52:40.691Z,13.80
2023-05-03T10:55:14.517Z,14.35
2023-05-03T10:57:44.657Z,17.52
2023-05-03T11:00:18.693Z,13.60
2023-05-03T11:03:07.354Z,13.10
2023-05-03T11:05:34.486Z,12.50
2023-05-03T11:08:17.177Z,12.77
2023-05-03T11:10:45.501Z,13.00
2023-05-03T11:15:39.948Z,13.25
2023-05-03T11:18:08.209Z,13.02
2023-05-03T11:20:36.143Z,12.13
2023-05-03T11:23:04.253Z,12.52
2023-05-03T11:25:31.213Z,12.98
2023-05-03T11:27:58.160Z,10.80
2023-05-03T11:30:24.837Z,12.77
2023-05-03T11:32:52.077Z,13.73
2023-05-03T11:35:19.436Z,11.70
2023-05-03T11:37:46.135Z,12.68
2023-05-03T11:40:17.467Z,11.38
2023-05-03T11:42:52.779Z,13.13
2023-05-03T11:45:24.986Z,12.60
2023-05-03T11:47:52.744Z,12.00
2023-05-03T11:50:26.688Z,13.27
2023-05-03T11:52:53.921Z,13.55
2023-05-03T11:55:21.887Z,12.48
2023-05-03T11:57:50.165Z,13.05
2023-05-03T12:00:19.613Z,12.77
2023-05-03T12:02:49.090Z,12.90
2023-05-03T12:05:16.551Z,11.40
2023-05-03T12:07:44.537Z,9.93
2023-05-03T12:10:25.790Z,9.93
2023-05-03T12:12:56.819Z,9.48
2023-05-03T12:15:33.348Z,8.52
2023-05-03T12:18:04.181Z,7.75
2023-05-03T12:23:04.675Z,7.45
2023-05-03T12:25:33.904Z,8.40
2023-05-03T12:30:35.289Z,8.75
2023-05-03T12:33:04.654Z,7.95
2023-05-03T12:35:34.201Z,7.47
2023-05-03T12:38:09.045Z,9.32
2023-05-03T12:40:36.563Z,8.50
2023-05-03T12:43:03.676Z,8.00
2023-05-03T12:45:34.447Z,8.07
2023-05-03T12:48:02.948Z,7.22
2023-05-03T12:50:32.056Z,7.55
2023-05-03T12:53:02.397Z,8.90
2023-05-03T12:55:35.608Z,9.32
2023-05-03T12:58:40.000Z,8.43
2023-05-03T13:01:26.180Z,10.52
2023-05-03T13:03:43.382Z,7.95
2023-05-03T13:06:13.947Z,8.75
2023-05-03T13:08:49.740Z,8.23
2023-05-03T13:11:19.417Z,7.85
2023-05-03T13:13:46.617Z,9.15
2023-05-03T13:16:14.515Z,8.85
2023-05-03T13:18:43.034Z,7.90
2023-05-03T13:21:11.185Z,6.75
2023-05-03T13:23:38.453Z,7.97
2023-05-03T13:26:07.078Z,7.07
2023-05-03T13:28:34.031Z,6.80
2023-05-03T13:31:00.923Z,6.93
2023-05-03T13:33:29.062Z,7.00
2023-05-03T13:35:55.766Z,7.63
2023-05-03T13:38:22.799Z,6.68
2023-05-03T13:40:49.526Z,9.23
2023-05-03T13:43:16.309Z,7.50
2023-05-03T13:45:43.457Z,8.00
2023-05-03T13:48:18.397Z,6.85
2023-05-03T13:50:46.063Z,8.02
2023-05-03T13:53:12.816Z,7.47
2023-05-03T13:55:39.902Z,8.07
2023-05-03T13:58:06.534Z,6.50
2023-05-03T14:00:33.359Z,6.80
2023-05-03T14:03:00.438Z,7.70
2023-05-03T14:05:27.327Z,8.38
2023-05-03T14:07:54.011Z,8.95
2023-05-03T14:10:21.068Z,6.88
2023-05-03T14:12:47.840Z,8.38
2023-05-03T14:15:15.179Z,6.80
2023-05-03T14:17:43.726Z,6.80
2023-05-03T14:20:12.883Z,7.65
2023-05-03T14:22:39.664Z,6.95
2023-05-03T14:25:07.260Z,6.50
2023-05-03T14:27:34.073Z,6.88
2023-05-03T14:30:01.389Z,6.50
2023-05-03T14:32:28.249Z,5.57
2023-05-03T14:34:56.057Z,6.90
2023-05-03T14:37:22.968Z,7.05
2023-05-03T14:39:50.010Z,6.35
2023-05-03T14:42:16.675Z,5.90
2023-05-03T14:44:43.842Z,6.25
2023-05-03T14:47:10.580Z,6.00
2023-05-03T14:49:41.251Z,6.68
2023-05-03T14:52:08.952Z,6.40
2023-05-03T14:54:38.225Z,7.07
2023-05-03T14:57:05.157Z,6.72
2023-05-03T14:59:35.201Z,6.97
2023-05-03T15:02:02.519Z,6.25
2023-05-03T15:04:29.783Z,6.20
2023-05-03T15:07:02.647Z,6.50
2023-05-03T15:09:32.860Z,6.90
2023-05-03T15:12:02.341Z,7.93
2023-05-03T15:14:29.261Z,5.65
2023-05-03T15:16:56.386Z,5.13
2023-05-03T15:19:23.196Z,6.28
2023-05-03T15:21:51.621Z,6.18
2023-05-03T15:24:19.689Z,5.93
2023-05-03T15:26:47.055Z,6.78
2023-05-03T15:29:15.137Z,6.30
2023-05-03T15:31:42.979Z,6.78
2023-05-03T15:34:12.372Z,6.00
2023-05-03T15:36:39.400Z,6.13
2023-05-03T15:39:06.206Z,6.18
2023-05-03T15:41:33.065Z,5.85
2023-05-03T15:44:04.973Z,5.55
2023-05-03T15:46:32.393Z,6.65
2023-05-03T15:48:59.101Z,5.07
2023-05-03T15:51:28.017Z,5.80
2023-05-03T15:53:54.941Z,7.85
2023-05-03T15:56:24.794Z,5.68
2023-05-03T15:58:51.986Z,4.72
2023-05-03T16:01:18.973Z,5.78
2023-05-03T16:03:46.556Z,5.05
2023-05-03T16:06:13.420Z,5.05
2023-05-03T16:08:40.231Z,4.60
2023-05-03T16:11:07.868Z,4.65
2023-05-03T16:13:35.102Z,5.45
2023-05-03T16:16:03.198Z,5.35
2023-05-03T16:18:30.036Z,4.55
2023-05-03T16:20:56.894Z,5.53
2023-05-03T16:23:23.587Z,8.70
2023-05-03T16:25:50.260Z,5.47
2023-05-03T16:28:18.178Z,6.60
2023-05-03T16:30:45.257Z,4.70
2023-05-03T16:33:12.290Z,5.72
2023-05-03T16:35:39.065Z,4.85
2023-05-03T16:38:05.807Z,4.72
2023-05-03T16:40:32.497Z,3.45
2023-05-03T16:42:59.190Z,4.57
2023-05-03T16:45:26.227Z,4.57
2023-05-03T16:47:53.327Z,4.28
2023-05-03T16:50:20.246Z,5.25
2023-05-03T16:52:47.066Z,5.10
2023-05-03T16:55:14.630Z,4.22
2023-05-03T16:57:41.877Z,5.25
2023-05-03T17:00:10.490Z,5.50
2023-05-03T17:02:38.385Z,4.72
2023-05-03T17:05:05.974Z,5.22
2023-05-03T17:07:33.920Z,7.00
2023-05-03T17:10:01.544Z,5.15
2023-05-03T17:12:29.226Z,5.78
2023-05-03T17:14:56.105Z,4.50
2023-05-03T17:17:22.806Z,4.32
2023-05-03T17:19:49.581Z,5.55
2023-05-03T17:22:16.473Z,4.35
2023-05-03T17:24:43.188Z,5.82
2023-05-03T17:27:10.040Z,6.63
2023-05-03T17:29:37.017Z,5.45
2023-05-03T17:32:04.100Z,4.20
2023-05-03T17:34:31.358Z,4.47
2023-05-03T17:36:59.607Z,4.60
2023-05-03T17:39:28.358Z,4.72
2023-05-03T17:41:55.478Z,4.57
2023-05-03T17:44:23.375Z,4.95
2023-05-03T17:46:51.851Z,5.30
2023-05-03T17:49:19.689Z,3.97
2023-05-03T17:51:46.439Z,4.10
2023-05-03T17:54:13.711Z,3.80
2023-05-03T17:56:40.427Z,4.35
2023-05-03T17:59:07.368Z,4.57
2023-05-03T18:01:34.213Z,4.43
2023-05-03T18:04:01.766Z,3.50
2023-05-03T18:06:29.334Z,4.50
2023-05-03T18:08:55.988Z,4.85
2023-05-03T18:11:23.205Z,3.72
2023-05-03T18:13:49.809Z,4.20
2023-05-03T18:16:17.143Z,5.03
2023-05-03T18:18:44.128Z,5.38
2023-05-03T18:21:11.866Z,4.05
2023-05-03T18:23:38.677Z,4.20
2023-05-03T18:26:05.610Z,3.92
2023-05-03T18:28:32.627Z,4.00
2023-05-03T18:30:59.504Z,5.00
2023-05-03T18:33:26.280Z,3.40
2023-05-03T18:35:53.800Z,4.13
2023-05-03T18:38:21.809Z,4.50
2023-05-03T18:40:49.341Z,4.00
2023-05-03T18:43:16.142Z,4.47
2023-05-03T18:45:43.219Z,4.25
2023-05-03T18:48:10.418Z,4.72
2023-05-03T18:50:43.115Z,5.45
2023-05-03T18:53:13.997Z,3.95
2023-05-03T18:55:41.608Z,4.93
2023-05-03T18:58:08.377Z,4.28
2023-05-03T19:00:35.106Z,4.45
2023-05-03T19:03:01.793Z,4.93
2023-05-03T19:05:28.732Z,9.13
2023-05-03T19:07:55.833Z,12.55
2023-05-03T19:10:22.633Z,8.63
2023-05-03T19:12:52.080Z,8.35
2023-05-03T19:15:18.837Z,7.40
2023-05-03T19:17:46.736Z,5.43
2023-05-03T19:20:13.627Z,22.25
2023-05-03T19:22:40.585Z,10.07
2023-05-03T19:25:07.934Z,8.38
2023-05-03T19:27:34.818Z,14.02
2023-05-03T19:30:01.736Z,6.45
2023-05-03T19:32:28.888Z,4.68
2023-05-03T19:34:56.170Z,4.63
2023-05-03T19:37:22.812Z,5.20
2023-05-03T19:39:49.701Z,4.82
2023-05-03T19:42:17.217Z,4.32
2023-05-03T19:44:43.979Z,6.30
2023-05-03T19:47:10.688Z,5.72
2023-05-03T19:49:37.862Z,6.22
2023-05-03T19:52:06.309Z,5.53
2023-05-03T19:54:33.260Z,6.68
2023-05-03T19:57:07.587Z,4.95
2023-05-03T19:59:34.663Z,5.60
2023-05-03T20:02:01.437Z,4.38
2023-05-03T20:04:28.485Z,4.75
2023-05-03T20:06:55.203Z,3.80
2023-05-03T20:09:23.559Z,7.30
2023-05-03T20:14:22.625Z,5.05
2023-05-03T20:16:49.618Z,4.68
2023-05-03T20:19:16.839Z,5.13
2023-05-03T20:21:43.655Z,4.47
2023-05-03T20:24:11.310Z,6.15
2023-05-03T20:26:38.568Z,4.78
2023-05-03T20:29:05.691Z,4.03
2023-05-03T20:31:33.225Z,8.85
2023-05-03T20:34:00.603Z,8.23
2023-05-03T20:36:28.150Z,7.50
2023-05-03T20:38:55.873Z,7.15
2023-05-03T20:41:23.211Z,6.88
2023-05-03T20:43:51.924Z,6.55
2023-05-03T20:46:18.869Z,7.03
2023-05-03T20:48:46.006Z,6.15
2023-05-03T20:51:12.995Z,6.38
2023-05-03T20:53:39.798Z,6.38
2023-05-03T20:56:09.352Z,6.40
2023-05-03T20:58:39.215Z,5.70
2023-05-03T21:01:14.940Z,6.32
2023-05-03T21:03:45.700Z,5.97
2023-05-03T21:06:20.714Z,6.50
2023-05-03T21:08:48.247Z,7.22
2023-05-03T21:11:15.692Z,6.43
2023-05-03T21:13:46.443Z,5.57
2023-05-03T21:16:24.937Z,5.93
2023-05-03T21:18:52.970Z,4.55
2023-05-03T21:21:19.722Z,5.25
2023-05-03T21:23:46.609Z,5.07
2023-05-03T21:26:13.413Z,4.53
2023-05-03T21:28:40.156Z,7.35
2023-05-03T21:31:06.894Z,5.15
2023-05-03T21:33:33.910Z,4.80
2023-05-03T21:36:01.098Z,5.55
2023-05-03T21:38:28.257Z,4.55
2023-05-03T21:41:05.134Z,4.82
2023-05-03T21:43:32.699Z,4.75
2023-05-03T21:46:00.351Z,4.60
2023-05-03T21:48:27.663Z,5.88
2023-05-03T21:50:54.538Z,5.22
2023-05-03T21:53:21.928Z,5.25
2023-05-03T21:55:48.720Z,5.20
2023-05-03T21:58:16.008Z,3.90
2023-05-03T22:00:42.786Z,4.45
2023-05-03T22:03:09.991Z,5.28
2023-05-03T22:05:39.912Z,5.38
2023-05-03T22:08:06.761Z,5.25
2023-05-03T22:10:33.589Z,5.75
2023-05-03T22:13:00.360Z,5.45
2023-05-03T22:15:27.464Z,4.88
2023-05-03T22:17:54.195Z,4.10
2023-05-03T22:20:21.051Z,4.25
2023-05-03T22:22:47.848Z,4.00
2023-05-03T22:25:25.319Z,4.75
2023-05-03T22:27:52.832Z,4.45
2023-05-03T22:30:19.963Z,5.53
2023-05-03T22:32:47.785Z,5.30
2023-05-03T22:35:15.580Z,5.57
2023-05-03T22:37:42.663Z,4.85
2023-05-03T22:40:10.137Z,5.03
2023-05-03T22:42:37.149Z,5.38
2023-05-03T22:45:05.004Z,5.40
2023-05-03T22:47:31.991Z,5.88
2023-05-03T22:49:58.865Z,5.55
2023-05-03T22:52:25.859Z,5.60
2023-05-03T22:54:56.898Z,5.78
2023-05-03T22:57:23.664Z,7.15
2023-05-03T22:59:50.762Z,4.72
2023-05-03T23:02:17.800Z,5.25
2023-05-03T23:04:44.787Z,6.20
2023-05-03T23:07:11.552Z,5.28
2023-05-03T23:09:38.802Z,6.18
2023-05-03T23:12:06.155Z,6.13
2023-05-03T23:14:33.429Z,5.88
2023-05-03T23:17:00.564Z,5.43
2023-05-03T23:19:28.215Z,5.05
2023-05-03T23:21:55.528Z,4.60
2023-05-03T23:24:25.240Z,4.75
2023-05-03T23:26:51.955Z,5.82
2023-05-03T23:29:19.123Z,5.28
2023-05-03T23:31:46.394Z,4.90
2023-05-03T23:34:13.658Z,5.47
2023-05-03T23:36:42.203Z,5.60
2023-05-03T23:41:36.569Z,5.30
2023-05-03T23:44:04.647Z,5.50
2023-05-03T23:46:33.827Z,5.55
2023-05-03T23:49:01.131Z,4.70
2023-05-03T23:51:27.958Z,4.88
2023-05-03T23:53:54.790Z,4.07
2023-05-03T23:56:21.851Z,4.82
2023-05-03T23:58:48.532Z,5.18
